Flight Track Log - Related Links

Times and Time Zones

All times are in EDT time to prevent confusion due to time zone crossing. See the N960DL flight status page for this flight to view local times or setup timezone preferences in your user account.

Time Position Orientation Groundspeed Altitude Reporting Facility
EDT Latitude Longitude Course Direction KTS MPH feet Rate Location/Type
Sun 08:03:51 PM 25.7847 -80.3156 336° Northwest 170 196 900  Level Miami Center
Sun 08:04:58 PM 25.8019 -80.3808 286° West 251 289 2,400 2,104 Climbing Miami Center
Sun 08:06:00 PM 26.1250 -80.3917 339° North  Level FlightAware Approximate
Sun 08:06:05 PM 25.8419 -80.4533 302° West 267 307 5,600  Level Miami Center
Sun 08:06:46 PM 25.8961 -80.4528 North 276 318 6,900 2,557 Climbing Miami Center
Sun 08:07:00 PM 26.2376 -80.4271 336° Northwest  Level FlightAware Approximate
Sun 08:07:06 PM 25.9253 -80.4558 355° North 292 336 8,200  Level Miami Center
Sun 08:07:46 PM 25.9778 -80.4458 10° North 292 336 9,500 2,280 Climbing Miami Center
Sun 08:08:00 PM 26.3460 -80.4813 336° Northwest  Level FlightAware Approximate
Sun 08:08:46 PM 26.0572 -80.4414 North 329 379 12,000  Level Miami Center
Sun 08:09:00 PM 26.4544 -80.5355 336° Northwest  Level FlightAware Approximate
Sun 08:09:46 PM 26.1453 -80.4347 North 329 379 14,200  Level Miami Center
Sun 08:10:46 PM 26.2353 -80.4283 North 329 379 16,300 2,150 Climbing Miami Center
Sun 08:11:46 PM 26.3156 -80.4725 334° Northwest 319 367 18,500 1,850 Climbing Miami Center
Sun 08:12:46 PM 26.4106 -80.5147 338° Northwest 324 373 20,000 1,200 Climbing Miami Center
Sun 08:13:46 PM 26.4953 -80.5544 337° Northwest 348 400 20,900 1,000 Climbing Miami Center
Sun 08:14:46 PM 26.6044 -80.6067 337° Northwest 381 438 22,000 850 Climbing Miami Center
Sun 08:15:46 PM 26.7014 -80.6539 336° Northwest 406 467 22,600 900 Climbing Miami Center
Sun 08:16:46 PM 26.8294 -80.7117 338° Northwest 434 499 23,800 1,300 Climbing Miami Center
Sun 08:17:46 PM 26.9536 -80.7531 343° North 448 516 25,200 1,650 Climbing Miami Center
Sun 08:18:46 PM 27.0756 -80.7967 342° North 458 527 27,100 1,600 Climbing Miami Center
Sun 08:19:46 PM 27.1975 -80.8406 342° North 458 527 28,400 1,400 Climbing Miami Center
Sun 08:20:46 PM 27.3175 -80.8819 343° North 458 527 29,900 1,250 Climbing Miami Center
Sun 08:21:46 PM 27.4372 -80.9283 341° North 453 521 30,900 1,100 Climbing Miami Center
Sun 08:22:46 PM 27.5553 -80.9700 343° North 448 516 32,100 950 Climbing Miami Center
Sun 08:23:46 PM 27.6708 -81.0139 341° North 441 507 32,800 450 Climbing Miami Center
Sun 08:24:46 PM 27.7906 -81.0558 343° North 435 501 33,000 100 Climbing Miami Center
Sun 08:25:46 PM 27.9083 -81.1025 341° North 441 507 33,000  Level Miami Center
Sun 08:26:46 PM 28.0156 -81.1394 343° North 441 507 33,000  Level Miami Center
Sun 08:27:46 PM 28.1333 -81.1839 342° North 441 507 33,000  Level Miami Center
Sun 08:28:46 PM 28.2653 -81.2314 342° North 441 507 33,000  Level Miami Center
Sun 08:29:51 PM 28.3964 -81.2808 342° North 442 509 33,000  Level Jacksonville Center
Sun 08:30:51 PM 28.5161 -81.3239 342° North 447 514 33,000  Level Jacksonville Center
Sun 08:31:51 PM 28.6414 -81.3456 351° North 442 509 33,000  Level Jacksonville Center
Sun 08:32:51 PM 28.7689 -81.3578 355° North 452 520 33,000  Level Jacksonville Center
Sun 08:33:51 PM 28.8942 -81.3700 355° North 452 520 33,000  Level Jacksonville Center
Sun 08:34:51 PM 29.0239 -81.3822 355° North 452 520 33,000  Level Jacksonville Center
Sun 08:35:51 PM 29.1533 -81.3969 354° North 466 536 33,000  Level Jacksonville Center
Sun 08:36:51 PM 29.2786 -81.4047 357° North 465 535 33,000  Level Jacksonville Center
Sun 08:37:51 PM 29.4083 -81.4169 355° North 465 535 33,000  Level Jacksonville Center
Sun 08:38:51 PM 29.5378 -81.4317 354° North 460 529 33,000  Level Jacksonville Center
Sun 08:39:51 PM 29.6653 -81.4442 355° North 460 529 33,000  Level Jacksonville Center
Sun 08:40:51 PM 29.7950 -81.4567 355° North 460 529 33,000  Level Jacksonville Center
Sun 08:41:51 PM 29.9244 -81.4689 355° North 466 536 33,000  Level Jacksonville Center
Sun 08:42:51 PM 30.0542 -81.4817 355° North 466 536 33,000  Level Jacksonville Center
Sun 08:43:51 PM 30.1878 -81.4964 355° North 466 536 33,000  Level Jacksonville Center
Sun 08:44:51 PM 30.3194 -81.5089 355° North 466 536 33,000  Level Jacksonville Center
Sun 08:45:51 PM 30.4531 -81.5094 360° North 466 536 33,000  Level Jacksonville Center
Sun 08:46:51 PM 30.5886 -81.4931 North 471 542 33,000  Level Jacksonville Center
Sun 08:47:51 PM 30.7200 -81.4717 North 481 554 33,000  Level Jacksonville Center
Sun 08:48:51 PM 30.8556 -81.4456 North 481 554 33,000  Level Jacksonville Center
Sun 08:49:51 PM 30.9889 -81.4217 North 486 559 33,000  Level Jacksonville Center
Sun 08:50:51 PM 31.1264 -81.3975 North 480 552 33,000  Level Jacksonville Center
Sun 08:51:51 PM 31.2597 -81.3711 10° North 487 560 33,000  Level Jacksonville Center
Sun 08:52:51 PM 31.3783 -81.3450 11° North 486 559 33,000  Level Jacksonville Center
Sun 08:53:51 PM 31.5217 -81.2889 18° North 481 554 33,000  Level Jacksonville Center
Sun 08:54:51 PM 31.6356 -81.2236 26° Northeast 497 572 33,000  Level Jacksonville Center
Sun 08:55:51 PM 31.7703 -81.1428 27° Northeast 497 572 33,000  Level Jacksonville Center
Sun 08:56:51 PM 31.8967 -81.0719 25° Northeast 497 572 33,000  Level Jacksonville Center
Sun 08:57:51 PM 32.0228 -80.9961 27° Northeast 497 572 33,000  Level Jacksonville Center
Sun 08:58:51 PM 32.1492 -80.9222 26° Northeast 502 578 33,000  Level Jacksonville Center
Sun 08:59:51 PM 32.2608 -80.8558 27° Northeast 502 578 33,000  Level Jacksonville Center
Sun 09:00:51 PM 32.3994 -80.7767 26° Northeast 507 583 33,000  Level Jacksonville Center
Sun 09:01:51 PM 32.5108 -80.7075 28° Northeast 501 577 33,000  Level Jacksonville Center
Sun 09:02:51 PM 32.6369 -80.6328 27° Northeast 501 577 33,000  Level Jacksonville Center
Sun 09:03:51 PM 32.7631 -80.5581 26° Northeast 501 577 33,000  Level Jacksonville Center
Sun 09:04:51 PM 32.8889 -80.4806 27° Northeast 506 582 33,000  Level Jacksonville Center
Sun 09:05:51 PM 33.0269 -80.3975 27° Northeast 506 582 33,000  Level Jacksonville Center
Sun 09:06:51 PM 33.1569 -80.3172 27° Northeast 511 588 33,000  Level Jacksonville Center
Sun 09:07:51 PM 33.2683 -80.2542 25° Northeast 493 567 33,000 -50 Level Jacksonville Center
Sun 09:08:51 PM 33.3878 -80.1786 28° Northeast 492 566 32,900  Descending Jacksonville Center
Sun 09:09:51 PM 33.5133 -80.1025 27° Northeast 492 566 33,000 50 Climbing Jacksonville Center
Sun 09:10:51 PM 33.6392 -80.0286 26° Northeast 492 566 33,000  Level Jacksonville Center
Sun 09:11:51 PM 33.7625 -79.9497 28° Northeast 492 566 33,000  Level Jacksonville Center
Sun 09:12:51 PM 33.8858 -79.8756 27° Northeast 492 566 33,000  Level Jacksonville Center
Sun 09:13:51 PM 34.0114 -79.7986 27° Northeast 492 566 33,000  Level Jacksonville Center
Sun 09:15:25 PM 34.1978 -79.6819 27° Northeast 471 542 33,000  Level Washington Center
Sun 09:16:28 PM 34.3297 -79.6106 24° Northeast 487 560 33,000  Level Washington Center
Sun 09:17:25 PM 34.4592 -79.5414 24° Northeast 492 566 33,000  Level Washington Center
Sun 09:18:27 PM 34.5906 -79.4794 21° North 497 572 33,000  Level Washington Center
Sun 09:19:26 PM 34.7181 -79.4097 24° Northeast 497 572 33,000  Level Washington Center
Sun 09:20:28 PM 34.8456 -79.3400 24° Northeast 497 572 33,000  Level Washington Center
Sun 09:21:27 PM 34.9728 -79.2722 24° Northeast 497 572 33,000  Level Washington Center
Sun 09:22:26 PM 35.1000 -79.2044 24° Northeast 497 572 33,000  Level Washington Center
Sun 09:23:26 PM 35.2294 -79.1367 23° Northeast 497 572 33,000  Level Washington Center
Sun 09:24:27 PM 35.3564 -79.0683 24° Northeast 491 565 33,000  Level Washington Center
Sun 09:25:28 PM 35.4836 -79.0000 24° Northeast 491 565 33,000  Level Washington Center
Sun 09:26:25 PM 35.6128 -78.9339 23° Northeast 491 565 33,000  Level Washington Center
Sun 09:27:26 PM 35.7400 -78.8650 24° Northeast 491 565 33,000  Level Washington Center
Sun 09:28:27 PM 35.8756 -78.7886 25° Northeast 491 565 33,000  Level Washington Center
Sun 09:29:26 PM 35.9908 -78.6931 34° Northeast 484 557 33,000  Level Washington Center
Sun 09:30:27 PM 36.1017 -78.5972 35° Northeast 484 557 33,000  Level Washington Center
Sun 09:31:27 PM 36.2083 -78.5008 36° Northeast 484 557 33,000  Level Washington Center
Sun 09:32:27 PM 36.3172 -78.4044 35° Northeast 484 557 33,000  Level Washington Center
Sun 09:33:25 PM 36.4258 -78.3075 36° Northeast 484 557 33,000  Level Washington Center
Sun 09:34:26 PM 36.5344 -78.2081 36° Northeast 484 557 33,000  Level Washington Center
Sun 09:35:26 PM 36.6242 -78.1128 40° Northeast 479 551 33,000  Level Washington Center
Sun 09:36:27 PM 36.7392 -77.9972 39° Northeast 471 542 33,000  Level Washington Center
Sun 09:37:25 PM 36.8433 -77.8939 38° Northeast 481 554 33,000  Level Washington Center
Sun 09:38:27 PM 36.9433 -77.7878 40° Northeast 476 548 33,000  Level Washington Center
Sun 09:39:25 PM 37.0453 -77.6867 38° Northeast 476 548 33,000  Level Washington Center
Sun 09:40:27 PM 37.1472 -77.5825 39° Northeast 476 548 33,000  Level Washington Center
Sun 09:41:27 PM 37.2492 -77.4783 39° Northeast 476 548 33,000  Level Washington Center
Sun 09:42:25 PM 37.3508 -77.3761 39° Northeast 476 548 33,000  Level Washington Center
Sun 09:43:26 PM 37.4525 -77.2714 39° Northeast 476 548 33,000  Level Washington Center
Sun 09:44:27 PM 37.5433 -77.1792 39° Northeast 476 548 33,000  Level Washington Center
Sun 09:45:26 PM 37.6447 -77.0736 39° Northeast 476 548 33,000  Level Washington Center
Sun 09:46:28 PM 37.7442 -76.9681 40° Northeast 476 548 33,000  Level Washington Center
Sun 09:47:25 PM 37.8433 -76.8644 40° Northeast 476 548 33,000  Level Washington Center
Sun 09:48:26 PM 37.9422 -76.7608 40° Northeast 471 542 33,000  Level Washington Center
Sun 09:49:27 PM 38.0411 -76.6597 39° Northeast 465 535 33,000  Level Washington Center
Sun 09:50:25 PM 38.1422 -76.5528 40° Northeast 459 528 33,000  Level Washington Center
Sun 09:51:26 PM 38.2389 -76.4508 40° Northeast 459 528 33,000  Level Washington Center
Sun 09:52:26 PM 38.3481 -76.3436 38° Northeast 453 521 33,000 -149 Level Washington Center
Sun 09:53:27 PM 38.4508 -76.2464 37° Northeast 448 516 32,700 -756 Descending Washington Center
Sun 09:54:25 PM 38.5575 -76.1519 35° Northeast 453 521 31,500 -1,059 Descending Washington Center
Sun 09:55:26 PM 38.6539 -76.0650 35° Northeast 459 528 30,600 -1,240 Descending Washington Center
Sun 09:56:26 PM 38.7564 -75.9697 36° Northeast 459 528 29,000 -1,736 Descending Washington Center
Sun 09:57:27 PM 38.8589 -75.8717 37° Northeast 459 528 27,100 -1,059 Descending Washington Center
Sun 09:58:25 PM 38.9631 -75.7731 36° Northeast 459 528 26,900 -50 Descending Washington Center
Sun 09:59:26 PM 39.0656 -75.6744 37° Northeast 459 528 27,000 49 Climbing Washington Center
Sun 10:00:27 PM 39.1697 -75.5783 36° Northeast 459 528 27,000 -101 Level Washington Center
Sun 10:01:25 PM 39.2697 -75.4789 38° Northeast 459 528 26,800 -655 Descending Washington Center
Sun 10:02:26 PM 39.3717 -75.3928 33° Northeast 454 522 25,700 -1,279 Descending Washington Center
Sun 10:03:27 PM 39.4714 -75.3039 35° Northeast 441 507 24,200 -1,600 Descending Washington Center
Sun 10:04:26 PM 39.5650 -75.2175 35° Northeast 431 496 22,500 -1,815 Descending Washington Center
Sun 10:05:26 PM 39.6689 -75.1225 35° Northeast 416 479 20,600 -1,835 Descending Washington Center
Sun 10:06:27 PM 39.7622 -75.0381 35° Northeast 416 479 18,800 -1,721 Descending Washington Center
Sun 10:07:28 PM 39.8578 -74.9564 33° Northeast 416 479 17,100 -1,932 Descending Washington Center
Sun 10:08:25 PM 39.9425 -74.8664 39° Northeast 416 479 15,000 -2,186 Descending Washington Center
Sun 10:09:26 PM 40.0147 -74.7653 47° Northeast 400 460 12,800 -2,268 Descending Washington Center
Sun 10:10:32 PM 40.1000 -74.6500 46° Northeast 369 425 10,200 -1,333 Descending New York TRACON
Sun 10:11:32 PM 40.1667 -74.5500 49° Northeast 366 421 10,000 -95 Descending New York TRACON
Sun 10:12:38 PM 40.2333 -74.4667 44° Northeast 315 362 10,000 -650 Level New York TRACON
Sun 10:13:32 PM 40.2833 -74.3833 52° Northeast 284 327 8,700 -1,474 Descending New York TRACON
Sun 10:14:32 PM 40.3333 -74.3167 45° Northeast 280 322 7,200 -850 Descending New York TRACON
Sun 10:15:32 PM 40.4000 -74.2500 37° Northeast 278 320 7,000 -100 Descending New York TRACON
Sun 10:16:32 PM 40.4500 -74.1833 45° Northeast 278 320 7,000 -500 Level New York TRACON
Sun 10:17:32 PM 40.5167 -74.1167 37° Northeast 272 313 6,000 -1,150 Descending New York TRACON
Sun 10:18:32 PM 40.5833 -74.0667 30° Northeast 269 310 4,700 -1,053 Descending New York TRACON
Sun 10:19:26 PM 40.6333 -74.0500 14° North 266 306 4,000 -368 Descending New York TRACON
Sun 10:20:26 PM 40.7167 -74.0333 North 263 303 4,000  Level New York TRACON
Sun 10:21:26 PM 40.7833 -74.0000 21° North 260 299 4,000 -286 Level New York TRACON
Sun 10:22:32 PM 40.8333 -73.9667 27° Northeast 177 204 3,400 -476 Descending New York TRACON
Sun 10:23:32 PM 40.8833 -73.9333 27° Northeast 179 206 3,000 -200 Descending New York TRACON
Sun 10:24:32 PM 40.9167 -73.9000 37° Northeast 184 212 3,000 -250 Level New York TRACON
Sun 10:25:32 PM 40.9000 -73.8500 114° Southeast 169 194 2,500 -650 Descending New York TRACON
Sun 10:26:32 PM 40.8667 -73.8167 143° Southeast 170 196 1,700 -684 Descending New York TRACON
Sun 10:27:26 PM 40.8333 -73.8333 201° Southwest 147 169 1,200 -750 Descending New York TRACON
Sun 10:28:32 PM 40.8000 -73.8667 217° Southwest 144 166 200 -909 Descending New York TRACON

Login

Don't have an account? Register now (free) for customized features, flight alerts, and more!